sensor_id;sensor_type;location;lat;lon;timestamp;temperature;humidity
8605;DHT22;4340;52.516;13.468;2022-08-03T00:00:58;22.00;1.00
8605;DHT22;4340;52.516;13.468;2022-08-03T00:03:25;21.90;1.00
8605;DHT22;4340;52.516;13.468;2022-08-03T00:05:51;21.90;1.00
8605;DHT22;4340;52.516;13.468;2022-08-03T00:08:18;21.90;1.00
8605;DHT22;4340;52.516;13.468;2022-08-03T00:10:44;21.90;1.00
8605;DHT22;4340;52.516;13.468;2022-08-03T00:13:11;21.90;1.00
8605;DHT22;4340;52.516;13.468;2022-08-03T00:15:39;22.00;1.00
8605;DHT22;4340;52.516;13.468;2022-08-03T00:18:06;21.90;1.00
8605;DHT22;4340;52.516;13.468;2022-08-03T00:20:33;22.00;1.00
8605;DHT22;4340;52.516;13.468;2022-08-03T00:23:00;21.90;1.00
8605;DHT22;4340;52.516;13.468;2022-08-03T00:25:26;21.90;1.00
8605;DHT22;4340;52.516;13.468;2022-08-03T00:27:53;21.90;1.00
8605;DHT22;4340;52.516;13.468;2022-08-03T00:30:20;21.90;1.00
8605;DHT22;4340;52.516;13.468;2022-08-03T00:32:47;21.90;1.00
8605;DHT22;4340;52.516;13.468;2022-08-03T00:35:14;21.80;1.00
8605;DHT22;4340;52.516;13.468;2022-08-03T00:37:41;21.90;1.00
8605;DHT22;4340;52.516;13.468;2022-08-03T00:40:10;21.80;1.00
8605;DHT22;4340;52.516;13.468;2022-08-03T00:42:45;21.80;1.00
8605;DHT22;4340;52.516;13.468;2022-08-03T00:45:12;21.70;1.00
8605;DHT22;4340;52.516;13.468;2022-08-03T00:47:39;21.60;1.00
8605;DHT22;4340;52.516;13.468;2022-08-03T00:50:07;21.60;1.00
8605;DHT22;4340;52.516;13.468;2022-08-03T00:52:34;21.70;1.00
8605;DHT22;4340;52.516;13.468;2022-08-03T00:55:01;21.70;1.00
8605;DHT22;4340;52.516;13.468;2022-08-03T00:57:29;21.70;1.00
8605;DHT22;4340;52.516;13.468;2022-08-03T00:59:57;21.70;1.00
8605;DHT22;4340;52.516;13.468;2022-08-03T01:02:24;21.70;1.00
8605;DHT22;4340;52.516;13.468;2022-08-03T01:04:51;21.70;1.00
8605;DHT22;4340;52.516;13.468;2022-08-03T01:07:24;21.70;1.00
8605;DHT22;4340;52.516;13.468;2022-08-03T01:09:58;21.70;1.00
8605;DHT22;4340;52.516;13.468;2022-08-03T01:12:31;21.70;1.00
8605;DHT22;4340;52.516;13.468;2022-08-03T01:15:09;21.70;1.00
8605;DHT22;4340;52.516;13.468;2022-08-03T01:17:45;21.70;1.00
8605;DHT22;4340;52.516;13.468;2022-08-03T01:20:16;21.70;1.00
8605;DHT22;4340;52.516;13.468;2022-08-03T01:26:12;21.60;1.00
8605;DHT22;4340;52.516;13.468;2022-08-03T01:28:58;21.50;1.00
8605;DHT22;4340;52.516;13.468;2022-08-03T01:31:32;21.50;1.00
8605;DHT22;4340;52.516;13.468;2022-08-03T01:34:05;21.50;1.00
8605;DHT22;4340;52.516;13.468;2022-08-03T01:36:37;21.50;1.00
8605;DHT22;4340;52.516;13.468;2022-08-03T01:39:05;21.50;1.00
8605;DHT22;4340;52.516;13.468;2022-08-03T01:41:36;21.40;1.00
8605;DHT22;4340;52.516;13.468;2022-08-03T01:44:07;21.30;1.00
8605;DHT22;4340;52.516;13.468;2022-08-03T01:46:36;21.30;1.00
8605;DHT22;4340;52.516;13.468;2022-08-03T01:49:06;21.40;1.00
8605;DHT22;4340;52.516;13.468;2022-08-03T01:51:35;21.40;1.00
8605;DHT22;4340;52.516;13.468;2022-08-03T01:54:03;21.40;1.00
8605;DHT22;4340;52.516;13.468;2022-08-03T01:56:30;21.40;1.00
8605;DHT22;4340;52.516;13.468;2022-08-03T01:58:59;21.40;1.00
8605;DHT22;4340;52.516;13.468;2022-08-03T02:01:27;21.40;1.00
8605;DHT22;4340;52.516;13.468;2022-08-03T02:03:57;21.40;1.00
8605;DHT22;4340;52.516;13.468;2022-08-03T02:06:26;21.40;1.00
8605;DHT22;4340;52.516;13.468;2022-08-03T02:08:53;21.40;1.00
8605;DHT22;4340;52.516;13.468;2022-08-03T02:11:20;21.40;1.00
8605;DHT22;4340;52.516;13.468;2022-08-03T02:13:47;21.40;1.00
8605;DHT22;4340;52.516;13.468;2022-08-03T02:16:17;21.40;1.00
8605;DHT22;4340;52.516;13.468;2022-08-03T02:18:44;21.40;1.00
8605;DHT22;4340;52.516;13.468;2022-08-03T02:21:14;21.40;1.00
8605;DHT22;4340;52.516;13.468;2022-08-03T02:23:41;21.40;1.00
8605;DHT22;4340;52.516;13.468;2022-08-03T02:26:10;21.40;1.00
8605;DHT22;4340;52.516;13.468;2022-08-03T02:28:42;21.40;1.00
8605;DHT22;4340;52.516;13.468;2022-08-03T02:31:13;21.40;1.00
8605;DHT22;4340;52.516;13.468;2022-08-03T02:33:42;21.40;1.00
8605;DHT22;4340;52.516;13.468;2022-08-03T02:36:10;21.40;1.00
8605;DHT22;4340;52.516;13.468;2022-08-03T02:38:42;21.40;1.00
8605;DHT22;4340;52.516;13.468;2022-08-03T02:41:14;21.40;1.00
8605;DHT22;4340;52.516;13.468;2022-08-03T02:43:45;21.40;1.00
8605;DHT22;4340;52.516;13.468;2022-08-03T02:46:14;21.40;1.00
8605;DHT22;4340;52.516;13.468;2022-08-03T02:48:44;21.40;1.00
8605;DHT22;4340;52.516;13.468;2022-08-03T02:51:11;21.40;1.00
8605;DHT22;4340;52.516;13.468;2022-08-03T02:53:41;21.40;1.00
8605;DHT22;4340;52.516;13.468;2022-08-03T02:56:10;21.30;1.00
8605;DHT22;4340;52.516;13.468;2022-08-03T02:58:38;21.40;1.00
8605;DHT22;4340;52.516;13.468;2022-08-03T03:01:06;21.30;1.00
8605;DHT22;4340;52.516;13.468;2022-08-03T03:03:34;21.30;1.00
8605;DHT22;4340;52.516;13.468;2022-08-03T03:06:01;21.40;1.00
8605;DHT22;4340;52.516;13.468;2022-08-03T03:08:28;21.40;1.00
8605;DHT22;4340;52.516;13.468;2022-08-03T03:10:59;21.40;1.00
8605;DHT22;4340;52.516;13.468;2022-08-03T03:13:27;21.40;1.00
8605;DHT22;4340;52.516;13.468;2022-08-03T03:15:56;21.40;1.00
8605;DHT22;4340;52.516;13.468;2022-08-03T03:18:26;21.40;1.00
8605;DHT22;4340;52.516;13.468;2022-08-03T03:20:54;21.40;1.00
8605;DHT22;4340;52.516;13.468;2022-08-03T03:23:22;21.40;1.00
8605;DHT22;4340;52.516;13.468;2022-08-03T03:25:51;21.30;1.00
8605;DHT22;4340;52.516;13.468;2022-08-03T03:28:20;21.40;1.00
8605;DHT22;4340;52.516;13.468;2022-08-03T03:30:48;21.30;1.00
8605;DHT22;4340;52.516;13.468;2022-08-03T03:33:14;21.30;1.00
8605;DHT22;4340;52.516;13.468;2022-08-03T03:35:41;21.30;1.00
8605;DHT22;4340;52.516;13.468;2022-08-03T03:38:10;21.40;1.00
8605;DHT22;4340;52.516;13.468;2022-08-03T03:40:37;21.30;1.00
8605;DHT22;4340;52.516;13.468;2022-08-03T03:43:07;21.40;1.00
8605;DHT22;4340;52.516;13.468;2022-08-03T03:45:35;21.40;1.00
8605;DHT22;4340;52.516;13.468;2022-08-03T03:48:03;21.50;1.00
8605;DHT22;4340;52.516;13.468;2022-08-03T03:50:31;21.40;1.00
8605;DHT22;4340;52.516;13.468;2022-08-03T03:52:58;21.40;1.00
8605;DHT22;4340;52.516;13.468;2022-08-03T03:55:25;21.40;1.00
8605;DHT22;4340;52.516;13.468;2022-08-03T03:57:51;21.40;1.00
8605;DHT22;4340;52.516;13.468;2022-08-03T04:00:18;21.40;1.00
8605;DHT22;4340;52.516;13.468;2022-08-03T04:02:46;21.40;1.00
8605;DHT22;4340;52.516;13.468;2022-08-03T04:05:14;21.30;1.00
8605;DHT22;4340;52.516;13.468;2022-08-03T04:08:00;21.30;1.00
8605;DHT22;4340;52.516;13.468;2022-08-03T04:10:53;21.20;1.00
8605;DHT22;4340;52.516;13.468;2022-08-03T04:13:28;21.20;1.00
8605;DHT22;4340;52.516;13.468;2022-08-03T04:15:56;21.20;1.00
8605;DHT22;4340;52.516;13.468;2022-08-03T04:18:27;21.20;1.00
8605;DHT22;4340;52.516;13.468;2022-08-03T04:20:56;21.10;1.00
8605;DHT22;4340;52.516;13.468;2022-08-03T04:23:26;21.10;1.00
8605;DHT22;4340;52.516;13.468;2022-08-03T04:25:54;21.10;1.00
8605;DHT22;4340;52.516;13.468;2022-08-03T04:28:22;21.10;1.00
8605;DHT22;4340;52.516;13.468;2022-08-03T04:30:52;21.10;1.00
8605;DHT22;4340;52.516;13.468;2022-08-03T04:33:19;21.10;1.00
8605;DHT22;4340;52.516;13.468;2022-08-03T04:35:49;21.10;1.00
8605;DHT22;4340;52.516;13.468;2022-08-03T04:38:18;21.10;1.00
8605;DHT22;4340;52.516;13.468;2022-08-03T04:40:45;21.20;1.00
8605;DHT22;4340;52.516;13.468;2022-08-03T04:43:13;21.10;1.00
8605;DHT22;4340;52.516;13.468;2022-08-03T04:45:42;21.20;1.00
8605;DHT22;4340;52.516;13.468;2022-08-03T04:48:09;21.20;1.00
8605;DHT22;4340;52.516;13.468;2022-08-03T04:50:36;21.20;1.00
8605;DHT22;4340;52.516;13.468;2022-08-03T04:53:04;21.20;1.00
8605;DHT22;4340;52.516;13.468;2022-08-03T04:55:32;21.30;1.00
8605;DHT22;4340;52.516;13.468;2022-08-03T04:58:01;21.30;1.00
8605;DHT22;4340;52.516;13.468;2022-08-03T05:00:29;21.40;1.00
8605;DHT22;4340;52.516;13.468;2022-08-03T05:02:56;21.50;1.00
8605;DHT22;4340;52.516;13.468;2022-08-03T05:05:23;21.70;1.00
8605;DHT22;4340;52.516;13.468;2022-08-03T05:07:49;21.80;1.00
8605;DHT22;4340;52.516;13.468;2022-08-03T05:10:17;21.90;1.00
8605;DHT22;4340;52.516;13.468;2022-08-03T05:12:45;21.80;1.00
8605;DHT22;4340;52.516;13.468;2022-08-03T05:15:13;21.80;1.00
8605;DHT22;4340;52.516;13.468;2022-08-03T05:17:40;21.90;1.00
8605;DHT22;4340;52.516;13.468;2022-08-03T05:20:08;22.10;1.00
8605;DHT22;4340;52.516;13.468;2022-08-03T05:22:35;22.30;1.00
8605;DHT22;4340;52.516;13.468;2022-08-03T05:25:02;22.50;1.00
8605;DHT22;4340;52.516;13.468;2022-08-03T05:27:30;22.60;1.00
8605;DHT22;4340;52.516;13.468;2022-08-03T05:29:57;22.80;1.00
8605;DHT22;4340;52.516;13.468;2022-08-03T05:32:23;23.00;1.00
8605;DHT22;4340;52.516;13.468;2022-08-03T05:34:50;23.20;1.00
8605;DHT22;4340;52.516;13.468;2022-08-03T05:37:16;23.30;1.00
8605;DHT22;4340;52.516;13.468;2022-08-03T05:39:43;23.40;1.00
8605;DHT22;4340;52.516;13.468;2022-08-03T05:42:09;23.40;1.00
8605;DHT22;4340;52.516;13.468;2022-08-03T05:44:37;23.60;1.00
8605;DHT22;4340;52.516;13.468;2022-08-03T05:47:04;23.80;1.00
8605;DHT22;4340;52.516;13.468;2022-08-03T05:49:30;23.90;1.00
8605;DHT22;4340;52.516;13.468;2022-08-03T05:51:57;23.90;1.00
8605;DHT22;4340;52.516;13.468;2022-08-03T05:54:23;24.00;1.00
8605;DHT22;4340;52.516;13.468;2022-08-03T05:56:50;24.00;1.00
8605;DHT22;4340;52.516;13.468;2022-08-03T05:59:17;24.20;1.00
8605;DHT22;4340;52.516;13.468;2022-08-03T06:01:45;24.30;1.00
8605;DHT22;4340;52.516;13.468;2022-08-03T06:04:11;24.50;1.00
8605;DHT22;4340;52.516;13.468;2022-08-03T06:06:38;24.60;1.00
8605;DHT22;4340;52.516;13.468;2022-08-03T06:09:04;24.80;1.00
8605;DHT22;4340;52.516;13.468;2022-08-03T06:11:31;24.90;1.00
8605;DHT22;4340;52.516;13.468;2022-08-03T06:13:57;25.10;1.00
8605;DHT22;4340;52.516;13.468;2022-08-03T06:16:24;25.00;1.00
8605;DHT22;4340;52.516;13.468;2022-08-03T06:18:53;24.90;1.00
8605;DHT22;4340;52.516;13.468;2022-08-03T06:21:19;24.80;1.00
8605;DHT22;4340;52.516;13.468;2022-08-03T06:23:46;24.80;1.00
8605;DHT22;4340;52.516;13.468;2022-08-03T06:26:13;24.70;1.00
8605;DHT22;4340;52.516;13.468;2022-08-03T06:28:39;24.70;1.00
8605;DHT22;4340;52.516;13.468;2022-08-03T06:31:06;24.70;1.00
8605;DHT22;4340;52.516;13.468;2022-08-03T06:33:32;24.70;1.00
8605;DHT22;4340;52.516;13.468;2022-08-03T06:36:00;24.80;1.00
8605;DHT22;4340;52.516;13.468;2022-08-03T06:38:27;24.80;1.00
8605;DHT22;4340;52.516;13.468;2022-08-03T06:40:53;24.80;1.00
8605;DHT22;4340;52.516;13.468;2022-08-03T06:43:20;24.70;1.00
8605;DHT22;4340;52.516;13.468;2022-08-03T06:45:46;24.70;1.00
8605;DHT22;4340;52.516;13.468;2022-08-03T06:48:13;24.80;1.00
8605;DHT22;4340;52.516;13.468;2022-08-03T06:50:41;24.80;1.00
8605;DHT22;4340;52.516;13.468;2022-08-03T06:53:09;24.70;1.00
8605;DHT22;4340;52.516;13.468;2022-08-03T06:55:36;24.70;1.00
8605;DHT22;4340;52.516;13.468;2022-08-03T06:58:03;24.80;1.00
8605;DHT22;4340;52.516;13.468;2022-08-03T07:00:29;24.90;1.00
8605;DHT22;4340;52.516;13.468;2022-08-03T07:02:56;24.90;1.00
8605;DHT22;4340;52.516;13.468;2022-08-03T07:05:23;25.00;1.00
8605;DHT22;4340;52.516;13.468;2022-08-03T07:07:53;24.90;1.00
8605;DHT22;4340;52.516;13.468;2022-08-03T07:10:22;24.90;1.00
8605;DHT22;4340;52.516;13.468;2022-08-03T07:12:48;24.90;1.00
8605;DHT22;4340;52.516;13.468;2022-08-03T07:15:15;24.80;1.00
8605;DHT22;4340;52.516;13.468;2022-08-03T07:17:42;24.70;1.00
8605;DHT22;4340;52.516;13.468;2022-08-03T07:20:09;24.80;1.00
8605;DHT22;4340;52.516;13.468;2022-08-03T07:22:37;24.90;1.00
8605;DHT22;4340;52.516;13.468;2022-08-03T07:25:05;24.90;1.00
8605;DHT22;4340;52.516;13.468;2022-08-03T07:27:32;24.90;1.00
8605;DHT22;4340;52.516;13.468;2022-08-03T07:29:59;24.80;1.00
8605;DHT22;4340;52.516;13.468;2022-08-03T07:32:26;25.00;1.00
8605;DHT22;4340;52.516;13.468;2022-08-03T07:34:55;25.20;1.00
8605;DHT22;4340;52.516;13.468;2022-08-03T07:37:22;24.90;1.00
8605;DHT22;4340;52.516;13.468;2022-08-03T07:39:48;25.10;1.00
8605;DHT22;4340;52.516;13.468;2022-08-03T07:42:15;25.10;1.00
8605;DHT22;4340;52.516;13.468;2022-08-03T07:44:43;25.10;1.00
8605;DHT22;4340;52.516;13.468;2022-08-03T07:47:09;25.00;1.00
8605;DHT22;4340;52.516;13.468;2022-08-03T07:49:39;25.00;1.00
8605;DHT22;4340;52.516;13.468;2022-08-03T07:52:06;25.00;1.00
8605;DHT22;4340;52.516;13.468;2022-08-03T07:54:50;25.20;1.00
8605;DHT22;4340;52.516;13.468;2022-08-03T07:57:16;25.50;1.00
8605;DHT22;4340;52.516;13.468;2022-08-03T07:59:46;25.20;1.00
8605;DHT22;4340;52.516;13.468;2022-08-03T08:02:12;25.20;1.00
8605;DHT22;4340;52.516;13.468;2022-08-03T08:04:39;25.20;1.00
8605;DHT22;4340;52.516;13.468;2022-08-03T08:07:06;25.20;1.00
8605;DHT22;4340;52.516;13.468;2022-08-03T08:09:32;25.30;1.00
8605;DHT22;4340;52.516;13.468;2022-08-03T08:11:59;25.30;1.00
8605;DHT22;4340;52.516;13.468;2022-08-03T08:14:26;25.20;1.00
8605;DHT22;4340;52.516;13.468;2022-08-03T08:16:53;25.30;1.00
8605;DHT22;4340;52.516;13.468;2022-08-03T08:19:20;25.20;1.00
8605;DHT22;4340;52.516;13.468;2022-08-03T08:21:47;25.20;1.00
8605;DHT22;4340;52.516;13.468;2022-08-03T08:24:14;25.20;1.00
8605;DHT22;4340;52.516;13.468;2022-08-03T08:26:40;25.20;1.00
8605;DHT22;4340;52.516;13.468;2022-08-03T08:29:07;25.30;1.00
8605;DHT22;4340;52.516;13.468;2022-08-03T08:31:33;25.40;1.00
8605;DHT22;4340;52.516;13.468;2022-08-03T08:34:01;25.50;1.00
8605;DHT22;4340;52.516;13.468;2022-08-03T08:36:30;25.30;1.00
8605;DHT22;4340;52.516;13.468;2022-08-03T08:38:57;25.30;1.00
8605;DHT22;4340;52.516;13.468;2022-08-03T08:41:24;25.50;1.00
8605;DHT22;4340;52.516;13.468;2022-08-03T08:43:52;25.40;1.00
8605;DHT22;4340;52.516;13.468;2022-08-03T08:46:19;25.50;1.00
8605;DHT22;4340;52.516;13.468;2022-08-03T08:48:47;25.40;1.00
8605;DHT22;4340;52.516;13.468;2022-08-03T08:51:16;25.40;1.00
8605;DHT22;4340;52.516;13.468;2022-08-03T08:53:48;25.50;1.00
8605;DHT22;4340;52.516;13.468;2022-08-03T08:56:16;25.50;1.00
8605;DHT22;4340;52.516;13.468;2022-08-03T08:58:48;25.30;1.00
8605;DHT22;4340;52.516;13.468;2022-08-03T09:01:17;25.30;1.00
8605;DHT22;4340;52.516;13.468;2022-08-03T09:03:44;25.60;1.00
8605;DHT22;4340;52.516;13.468;2022-08-03T09:06:11;25.60;1.00
8605;DHT22;4340;52.516;13.468;2022-08-03T09:08:39;25.60;1.00
8605;DHT22;4340;52.516;13.468;2022-08-03T09:11:06;25.50;1.00
8605;DHT22;4340;52.516;13.468;2022-08-03T09:13:33;25.50;1.00
8605;DHT22;4340;52.516;13.468;2022-08-03T09:16:14;25.40;1.00
8605;DHT22;4340;52.516;13.468;2022-08-03T09:18:41;25.50;1.00
8605;DHT22;4340;52.516;13.468;2022-08-03T09:21:16;25.60;1.00
8605;DHT22;4340;52.516;13.468;2022-08-03T09:23:45;25.60;1.00
8605;DHT22;4340;52.516;13.468;2022-08-03T09:26:19;25.90;1.00
8605;DHT22;4340;52.516;13.468;2022-08-03T09:28:45;26.00;1.00
8605;DHT22;4340;52.516;13.468;2022-08-03T09:31:12;25.70;1.00
8605;DHT22;4340;52.516;13.468;2022-08-03T09:33:46;25.60;1.00
8605;DHT22;4340;52.516;13.468;2022-08-03T09:36:38;25.50;1.00
8605;DHT22;4340;52.516;13.468;2022-08-03T09:39:08;25.60;1.00
8605;DHT22;4340;52.516;13.468;2022-08-03T09:41:37;25.80;1.00
8605;DHT22;4340;52.516;13.468;2022-08-03T09:44:04;25.90;1.00
8605;DHT22;4340;52.516;13.468;2022-08-03T09:46:30;26.00;1.00
8605;DHT22;4340;52.516;13.468;2022-08-03T09:49:10;25.80;1.00
8605;DHT22;4340;52.516;13.468;2022-08-03T09:51:38;25.80;1.00
8605;DHT22;4340;52.516;13.468;2022-08-03T09:54:06;25.80;1.00
8605;DHT22;4340;52.516;13.468;2022-08-03T09:56:41;25.70;1.00
8605;DHT22;4340;52.516;13.468;2022-08-03T09:59:09;25.80;1.00
8605;DHT22;4340;52.516;13.468;2022-08-03T10:01:37;25.80;1.00
8605;DHT22;4340;52.516;13.468;2022-08-03T10:04:10;25.70;1.00
8605;DHT22;4340;52.516;13.468;2022-08-03T10:06:38;25.70;1.00
8605;DHT22;4340;52.516;13.468;2022-08-03T10:09:07;26.20;1.00
8605;DHT22;4340;52.516;13.468;2022-08-03T10:11:34;26.60;1.00
8605;DHT22;4340;52.516;13.468;2022-08-03T10:14:03;26.80;1.00
8605;DHT22;4340;52.516;13.468;2022-08-03T10:16:33;27.10;1.00
8605;DHT22;4340;52.516;13.468;2022-08-03T10:19:01;27.30;1.00
8605;DHT22;4340;52.516;13.468;2022-08-03T10:21:32;27.50;1.00
8605;DHT22;4340;52.516;13.468;2022-08-03T10:24:01;27.60;1.00
8605;DHT22;4340;52.516;13.468;2022-08-03T10:26:30;27.60;1.00
8605;DHT22;4340;52.516;13.468;2022-08-03T10:28:59;27.80;1.00
8605;DHT22;4340;52.516;13.468;2022-08-03T10:31:32;27.70;1.00
8605;DHT22;4340;52.516;13.468;2022-08-03T10:34:01;27.50;1.00
8605;DHT22;4340;52.516;13.468;2022-08-03T10:36:30;27.60;1.00
8605;DHT22;4340;52.516;13.468;2022-08-03T10:38:58;27.70;1.00
8605;DHT22;4340;52.516;13.468;2022-08-03T10:41:37;27.90;1.00
8605;DHT22;4340;52.516;13.468;2022-08-03T10:44:07;27.90;1.00
8605;DHT22;4340;52.516;13.468;2022-08-03T10:46:36;27.90;1.00
8605;DHT22;4340;52.516;13.468;2022-08-03T10:49:04;27.90;1.00
8605;DHT22;4340;52.516;13.468;2022-08-03T10:51:31;27.70;1.00
8605;DHT22;4340;52.516;13.468;2022-08-03T10:53:59;27.70;1.00
8605;DHT22;4340;52.516;13.468;2022-08-03T10:56:39;27.90;1.00
8605;DHT22;4340;52.516;13.468;2022-08-03T10:59:55;27.90;1.00
8605;DHT22;4340;52.516;13.468;2022-08-03T11:02:22;28.00;1.00
8605;DHT22;4340;52.516;13.468;2022-08-03T11:05:25;28.60;1.00
8605;DHT22;4340;52.516;13.468;2022-08-03T11:08:17;28.30;1.00
8605;DHT22;4340;52.516;13.468;2022-08-03T11:10:43;28.60;1.00
8605;DHT22;4340;52.516;13.468;2022-08-03T11:13:14;28.40;1.00
8605;DHT22;4340;52.516;13.468;2022-08-03T11:15:43;28.20;1.00
8605;DHT22;4340;52.516;13.468;2022-08-03T11:18:11;28.30;1.00
8605;DHT22;4340;52.516;13.468;2022-08-03T11:20:48;28.30;1.00
8605;DHT22;4340;52.516;13.468;2022-08-03T11:23:16;28.40;1.00
8605;DHT22;4340;52.516;13.468;2022-08-03T11:26:12;28.80;1.00
8605;DHT22;4340;52.516;13.468;2022-08-03T11:28:40;28.40;1.00
8605;DHT22;4340;52.516;13.468;2022-08-03T11:31:43;28.40;1.00
8605;DHT22;4340;52.516;13.468;2022-08-03T11:34:16;28.20;1.00
8605;DHT22;4340;52.516;13.468;2022-08-03T11:37:17;28.20;1.00
8605;DHT22;4340;52.516;13.468;2022-08-03T11:39:45;28.30;1.00
8605;DHT22;4340;52.516;13.468;2022-08-03T11:42:37;28.40;1.00
8605;DHT22;4340;52.516;13.468;2022-08-03T11:45:06;28.50;1.00
8605;DHT22;4340;52.516;13.468;2022-08-03T11:47:36;28.60;1.00
8605;DHT22;4340;52.516;13.468;2022-08-03T11:50:04;28.60;1.00
8605;DHT22;4340;52.516;13.468;2022-08-03T11:52:35;28.70;1.00
8605;DHT22;4340;52.516;13.468;2022-08-03T11:55:17;28.90;1.00
8605;DHT22;4340;52.516;13.468;2022-08-03T11:57:45;29.30;1.00
8605;DHT22;4340;52.516;13.468;2022-08-03T12:00:26;28.80;1.00
8605;DHT22;4340;52.516;13.468;2022-08-03T12:02:59;28.70;1.00
8605;DHT22;4340;52.516;13.468;2022-08-03T12:05:37;28.80;1.00
8605;DHT22;4340;52.516;13.468;2022-08-03T12:08:05;29.00;1.00
8605;DHT22;4340;52.516;13.468;2022-08-03T12:10:32;28.80;1.00
8605;DHT22;4340;52.516;13.468;2022-08-03T12:13:00;28.80;1.00
8605;DHT22;4340;52.516;13.468;2022-08-03T12:15:29;28.70;1.00
8605;DHT22;4340;52.516;13.468;2022-08-03T12:17:58;28.70;1.00
8605;DHT22;4340;52.516;13.468;2022-08-03T12:20:26;28.90;1.00
8605;DHT22;4340;52.516;13.468;2022-08-03T12:22:53;29.00;1.00
8605;DHT22;4340;52.516;13.468;2022-08-03T12:25:22;29.30;1.00
8605;DHT22;4340;52.516;13.468;2022-08-03T12:27:49;29.20;1.00
8605;DHT22;4340;52.516;13.468;2022-08-03T12:30:17;29.20;1.00
8605;DHT22;4340;52.516;13.468;2022-08-03T12:32:45;29.20;1.00
8605;DHT22;4340;52.516;13.468;2022-08-03T12:35:21;29.20;1.00
8605;DHT22;4340;52.516;13.468;2022-08-03T12:37:48;29.50;1.00
8605;DHT22;4340;52.516;13.468;2022-08-03T12:40:23;29.50;1.00
8605;DHT22;4340;52.516;13.468;2022-08-03T12:42:50;29.40;1.00
8605;DHT22;4340;52.516;13.468;2022-08-03T12:45:18;29.30;1.00
8605;DHT22;4340;52.516;13.468;2022-08-03T12:47:56;29.20;1.00
8605;DHT22;4340;52.516;13.468;2022-08-03T12:50:24;29.30;1.00
8605;DHT22;4340;52.516;13.468;2022-08-03T12:52:51;29.20;1.00
8605;DHT22;4340;52.516;13.468;2022-08-03T12:55:19;29.30;1.00
8605;DHT22;4340;52.516;13.468;2022-08-03T12:57:46;29.40;1.00
8605;DHT22;4340;52.516;13.468;2022-08-03T13:00:15;29.80;1.00
8605;DHT22;4340;52.516;13.468;2022-08-03T13:02:42;29.70;1.00
8605;DHT22;4340;52.516;13.468;2022-08-03T13:05:11;29.60;1.00
8605;DHT22;4340;52.516;13.468;2022-08-03T13:07:40;29.60;1.00
8605;DHT22;4340;52.516;13.468;2022-08-03T13:10:08;30.00;1.00
8605;DHT22;4340;52.516;13.468;2022-08-03T13:12:45;30.10;1.00
8605;DHT22;4340;52.516;13.468;2022-08-03T13:15:13;30.20;1.00
8605;DHT22;4340;52.516;13.468;2022-08-03T13:17:39;29.90;1.00
8605;DHT22;4340;52.516;13.468;2022-08-03T13:20:07;29.70;1.00
8605;DHT22;4340;52.516;13.468;2022-08-03T13:22:35;29.70;1.00
8605;DHT22;4340;52.516;13.468;2022-08-03T13:25:02;29.70;1.00
8605;DHT22;4340;52.516;13.468;2022-08-03T13:27:29;29.80;1.00
8605;DHT22;4340;52.516;13.468;2022-08-03T13:29:56;29.90;1.00
8605;DHT22;4340;52.516;13.468;2022-08-03T13:32:23;29.80;1.00
8605;DHT22;4340;52.516;13.468;2022-08-03T13:34:50;29.80;1.00
8605;DHT22;4340;52.516;13.468;2022-08-03T13:37:16;29.60;1.00
8605;DHT22;4340;52.516;13.468;2022-08-03T13:39:44;29.50;1.00
8605;DHT22;4340;52.516;13.468;2022-08-03T13:42:11;29.50;1.00
8605;DHT22;4340;52.516;13.468;2022-08-03T13:44:37;29.40;1.00
8605;DHT22;4340;52.516;13.468;2022-08-03T13:47:04;29.50;1.00
8605;DHT22;4340;52.516;13.468;2022-08-03T13:49:31;29.60;1.00
8605;DHT22;4340;52.516;13.468;2022-08-03T13:51:57;30.00;1.00
8605;DHT22;4340;52.516;13.468;2022-08-03T13:54:24;30.00;1.00
8605;DHT22;4340;52.516;13.468;2022-08-03T13:56:52;29.90;1.00
8605;DHT22;4340;52.516;13.468;2022-08-03T13:59:19;29.80;1.00
8605;DHT22;4340;52.516;13.468;2022-08-03T14:01:46;29.90;1.00
8605;DHT22;4340;52.516;13.468;2022-08-03T14:04:12;30.10;1.00
8605;DHT22;4340;52.516;13.468;2022-08-03T14:06:39;30.00;1.00
8605;DHT22;4340;52.516;13.468;2022-08-03T14:09:05;29.90;1.00
8605;DHT22;4340;52.516;13.468;2022-08-03T14:11:32;29.90;1.00
8605;DHT22;4340;52.516;13.468;2022-08-03T14:14:00;30.10;1.00
8605;DHT22;4340;52.516;13.468;2022-08-03T14:16:27;30.00;1.00
8605;DHT22;4340;52.516;13.468;2022-08-03T14:18:53;30.00;1.00
8605;DHT22;4340;52.516;13.468;2022-08-03T14:21:20;29.90;1.00
8605;DHT22;4340;52.516;13.468;2022-08-03T14:23:46;30.00;1.00
8605;DHT22;4340;52.516;13.468;2022-08-03T14:26:13;29.80;1.00
8605;DHT22;4340;52.516;13.468;2022-08-03T14:28:40;29.90;1.00
8605;DHT22;4340;52.516;13.468;2022-08-03T14:31:08;30.30;1.00
8605;DHT22;4340;52.516;13.468;2022-08-03T14:33:34;30.30;1.00
8605;DHT22;4340;52.516;13.468;2022-08-03T14:36:01;30.40;1.00
8605;DHT22;4340;52.516;13.468;2022-08-03T14:38:27;30.50;1.00
8605;DHT22;4340;52.516;13.468;2022-08-03T14:40:54;30.20;1.00
8605;DHT22;4340;52.516;13.468;2022-08-03T14:43:21;30.00;1.00
8605;DHT22;4340;52.516;13.468;2022-08-03T14:45:48;29.90;1.00
8605;DHT22;4340;52.516;13.468;2022-08-03T14:48:18;30.10;1.00
8605;DHT22;4340;52.516;13.468;2022-08-03T14:50:44;30.10;1.00
8605;DHT22;4340;52.516;13.468;2022-08-03T14:53:11;30.30;1.00
8605;DHT22;4340;52.516;13.468;2022-08-03T14:55:38;30.50;1.00
8605;DHT22;4340;52.516;13.468;2022-08-03T14:58:04;30.20;1.00
8605;DHT22;4340;52.516;13.468;2022-08-03T15:00:31;30.10;1.00
8605;DHT22;4340;52.516;13.468;2022-08-03T15:02:58;30.00;1.00
8605;DHT22;4340;52.516;13.468;2022-08-03T15:05:26;30.00;1.00
8605;DHT22;4340;52.516;13.468;2022-08-03T15:07:53;30.10;1.00
8605;DHT22;4340;52.516;13.468;2022-08-03T15:10:19;30.10;1.00
8605;DHT22;4340;52.516;13.468;2022-08-03T15:12:46;30.00;1.00
8605;DHT22;4340;52.516;13.468;2022-08-03T15:15:12;30.10;1.00
8605;DHT22;4340;52.516;13.468;2022-08-03T15:17:39;30.10;1.00
8605;DHT22;4340;52.516;13.468;2022-08-03T15:20:06;30.20;1.00
8605;DHT22;4340;52.516;13.468;2022-08-03T15:22:38;30.10;1.00
8605;DHT22;4340;52.516;13.468;2022-08-03T15:25:05;30.00;1.00
8605;DHT22;4340;52.516;13.468;2022-08-03T15:27:32;30.30;1.00
8605;DHT22;4340;52.516;13.468;2022-08-03T15:29:58;30.20;1.00
8605;DHT22;4340;52.516;13.468;2022-08-03T15:32:25;30.10;1.00
8605;DHT22;4340;52.516;13.468;2022-08-03T15:34:51;30.20;1.00
8605;DHT22;4340;52.516;13.468;2022-08-03T15:37:19;30.10;1.00
8605;DHT22;4340;52.516;13.468;2022-08-03T15:39:47;30.10;1.00
8605;DHT22;4340;52.516;13.468;2022-08-03T15:42:14;30.10;1.00
8605;DHT22;4340;52.516;13.468;2022-08-03T15:44:40;30.00;1.00
8605;DHT22;4340;52.516;13.468;2022-08-03T15:47:07;30.00;1.00
8605;DHT22;4340;52.516;13.468;2022-08-03T15:49:33;30.10;1.00
8605;DHT22;4340;52.516;13.468;2022-08-03T15:52:00;30.50;1.00
8605;DHT22;4340;52.516;13.468;2022-08-03T15:54:26;30.50;1.00
8605;DHT22;4340;52.516;13.468;2022-08-03T15:56:54;30.60;1.00
8605;DHT22;4340;52.516;13.468;2022-08-03T15:59:21;30.50;1.00
8605;DHT22;4340;52.516;13.468;2022-08-03T16:01:48;30.40;1.00
8605;DHT22;4340;52.516;13.468;2022-08-03T16:04:14;30.20;1.00
8605;DHT22;4340;52.516;13.468;2022-08-03T16:06:41;30.20;1.00
8605;DHT22;4340;52.516;13.468;2022-08-03T16:09:08;30.20;1.00
8605;DHT22;4340;52.516;13.468;2022-08-03T16:11:34;30.30;1.00
8605;DHT22;4340;52.516;13.468;2022-08-03T16:14:02;30.20;1.00
8605;DHT22;4340;52.516;13.468;2022-08-03T16:16:29;30.10;1.00